Time;durP1;ratioP1;P1;durP2;ratioP2;P2;SDS_P1;SDS_P2;PMS_P1;PMS_P2;Temp;Humidity;BMP_temperature;BMP_pressure;BME280_temperature;BME280_humidity;BME280_pressure;Samples;Min_cycle;Max_cycle;Signal;HPM_P1;HPM_P2
2023/09/27 00:00:49;;;;;;;4.78;4.35;;;16.90;99.90;;;;;;2076681;28;20033;-74
2023/09/27 00:01:49;;;;;;;5.28;4.03;;;16.90;99.90;;;;;;2077270;28;20029;-74
2023/09/27 00:02:51;;;;;;;4.70;4.28;;;16.90;99.90;;;;;;2075289;28;20033;-74
2023/09/27 00:03:51;;;;;;;4.55;3.97;;;16.80;99.90;;;;;;2075869;28;20400;-74
2023/09/27 00:04:52;;;;;;;4.80;3.63;;;16.80;99.90;;;;;;2066463;28;20046;-74
2023/09/27 00:05:52;;;;;;;4.97;4.20;;;16.80;99.90;;;;;;2066614;28;20034;-74
2023/09/27 00:06:53;;;;;;;4.82;4.38;;;16.80;99.90;;;;;;2077093;28;20041;-74
2023/09/27 00:07:53;;;;;;;4.00;3.20;;;16.80;99.90;;;;;;2076832;28;20099;-74
2023/09/27 00:08:54;;;;;;;4.45;4.05;;;16.80;99.90;;;;;;2077031;28;20033;-74
2023/09/27 00:09:54;;;;;;;4.50;4.10;;;16.70;99.90;;;;;;2077542;28;20084;-74
2023/09/27 00:10:55;;;;;;;4.60;4.18;;;16.70;99.90;;;;;;2076044;28;20113;-74
2023/09/27 00:11:57;;;;;;;4.57;4.05;;;16.70;99.90;;;;;;2077118;28;20376;-74
2023/09/27 00:12:58;;;;;;;4.40;3.92;;;16.70;99.90;;;;;;2074452;28;20529;-74
2023/09/27 00:13:58;;;;;;;5.28;4.30;;;16.70;99.90;;;;;;2076504;28;20458;-74
2023/09/27 00:15:02;;;;;;;4.40;4.00;;;16.70;99.90;;;;;;2077709;28;20264;-74
2023/09/27 00:16:03;;;;;;;4.57;4.18;;;16.70;99.90;;;;;;2076996;28;20056;-74
2023/09/27 00:17:03;;;;;;;6.35;4.25;;;16.70;99.90;;;;;;2076383;28;20021;-74
2023/09/27 00:18:04;;;;;;;4.85;3.75;;;16.60;99.90;;;;;;2076263;28;20045;-74
2023/09/27 00:19:05;;;;;;;4.18;3.83;;;16.60;99.90;;;;;;2076600;28;20565;-74
2023/09/27 00:20:10;;;;;;;4.57;4.18;;;16.60;99.90;;;;;;2076659;28;20528;-74
2023/09/27 00:21:11;;;;;;;5.20;3.58;;;16.60;99.90;;;;;;2068485;28;20018;-74
2023/09/27 00:22:11;;;;;;;5.10;4.25;;;16.60;99.90;;;;;;2075894;28;20029;-74
2023/09/27 00:23:12;;;;;;;5.28;3.90;;;16.60;99.90;;;;;;2074569;28;20453;-74
2023/09/27 00:24:12;;;;;;;3.72;3.42;;;16.60;99.90;;;;;;2076289;28;20021;-74
2023/09/27 00:25:14;;;;;;;4.10;3.70;;;16.50;99.90;;;;;;2075745;28;20077;-74
2023/09/27 00:26:14;;;;;;;4.85;4.30;;;16.60;99.90;;;;;;2067413;28;20072;-74
2023/09/27 00:27:15;;;;;;;3.95;3.55;;;16.60;99.90;;;;;;2066215;28;20520;-74
2023/09/27 00:28:16;;;;;;;4.43;3.80;;;16.50;99.90;;;;;;2075511;28;20101;-74
2023/09/27 00:29:17;;;;;;;4.25;3.78;;;16.50;99.90;;;;;;2075681;28;20496;-74
2023/09/27 00:30:17;;;;;;;4.85;3.88;;;16.50;99.90;;;;;;2076061;28;20030;-74
2023/09/27 00:31:21;;;;;;;3.70;3.40;;;16.50;99.90;;;;;;2067716;28;20358;-74
2023/09/27 00:32:22;;;;;;;3.67;3.33;;;16.50;99.90;;;;;;2068588;28;20025;-74
2023/09/27 00:33:23;;;;;;;4.22;3.83;;;16.50;99.90;;;;;;2075595;28;20496;-74
2023/09/27 00:34:24;;;;;;;4.00;3.70;;;16.50;99.90;;;;;;2075675;28;20022;-74
2023/09/27 00:35:24;;;;;;;3.80;3.50;;;16.50;99.90;;;;;;2076619;28;20060;-74
2023/09/27 00:36:25;;;;;;;4.20;3.58;;;16.50;99.90;;;;;;2077137;28;20026;-74
2023/09/27 00:37:25;;;;;;;5.22;3.88;;;16.50;99.90;;;;;;2075785;28;20472;-74
2023/09/27 00:38:26;;;;;;;4.43;4.03;;;16.50;99.90;;;;;;2075381;28;20037;-74
2023/09/27 00:39:26;;;;;;;4.43;3.72;;;16.40;99.90;;;;;;2069636;28;20370;-74
2023/09/27 00:40:28;;;;;;;3.97;3.67;;;16.50;99.90;;;;;;2067374;28;20084;-74
2023/09/27 00:41:29;;;;;;;4.55;3.10;;;16.40;99.90;;;;;;2076778;28;20038;-74
2023/09/27 00:42:30;;;;;;;4.13;3.83;;;16.40;99.90;;;;;;2076106;28;20500;-74
2023/09/27 00:43:33;;;;;;;5.15;3.85;;;16.40;99.90;;;;;;2076458;28;20409;-74
2023/09/27 00:44:34;;;;;;;4.70;3.50;;;16.40;99.90;;;;;;2076218;28;20040;-74
2023/09/27 00:45:35;;;;;;;4.00;3.42;;;16.40;99.90;;;;;;2075941;28;20083;-74
2023/09/27 00:46:36;;;;;;;4.05;3.60;;;16.40;99.90;;;;;;2077635;28;20083;-74
2023/09/27 00:47:37;;;;;;;3.55;3.25;;;16.40;99.90;;;;;;2075210;28;20526;-74
2023/09/27 00:48:38;;;;;;;4.50;4.00;;;16.40;99.90;;;;;;2067936;28;20540;-74
2023/09/27 00:49:39;;;;;;;4.15;3.75;;;16.40;99.90;;;;;;2069806;28;20539;-74
2023/09/27 00:50:40;;;;;;;4.28;3.88;;;16.40;99.90;;;;;;2067786;28;20499;-74
2023/09/27 00:51:41;;;;;;;9.20;4.30;;;16.40;99.90;;;;;;2066558;28;20098;-74
2023/09/27 00:52:43;;;;;;;6.93;4.20;;;16.30;99.90;;;;;;2075795;28;20076;-74
2023/09/27 00:53:46;;;;;;;4.20;3.90;;;16.40;99.90;;;;;;2068362;28;20023;-74
2023/09/27 00:54:47;;;;;;;4.05;3.75;;;16.30;99.90;;;;;;2067580;28;20033;-74
2023/09/27 00:55:48;;;;;;;4.18;3.80;;;16.40;99.90;;;;;;2066820;28;20026;-74
2023/09/27 00:56:49;;;;;;;7.05;3.90;;;16.30;99.90;;;;;;2067252;28;20025;-74
2023/09/27 00:57:50;;;;;;;4.43;3.30;;;16.30;99.90;;;;;;2075766;28;20025;-74
2023/09/27 00:58:52;;;;;;;4.28;3.50;;;16.30;99.90;;;;;;2076364;28;20026;-74
2023/09/27 00:59:54;;;;;;;4.05;3.75;;;16.30;99.90;;;;;;2076489;28;20574;-74
2023/09/27 01:00:54;;;;;;;4.25;3.95;;;16.30;99.90;;;;;;2076132;28;20038;-74
2023/09/27 01:01:55;;;;;;;4.28;3.78;;;16.30;99.90;;;;;;2067504;28;20468;-74
2023/09/27 01:02:57;;;;;;;4.53;4.13;;;16.30;99.90;;;;;;2068378;28;20034;-74
2023/09/27 01:03:58;;;;;;;4.30;3.97;;;16.30;99.90;;;;;;2075329;28;20099;-74
2023/09/27 01:04:59;;;;;;;3.83;3.53;;;16.30;99.90;;;;;;2066860;28;20094;-74
2023/09/27 01:05:59;;;;;;;6.00;3.63;;;16.30;99.90;;;;;;2058900;28;20077;-74
2023/09/27 01:07:00;;;;;;;3.92;3.63;;;16.30;99.90;;;;;;2067811;28;20029;-74
2023/09/27 01:08:02;;;;;;;4.88;4.05;;;16.30;99.90;;;;;;2075075;28;20074;-74
2023/09/27 01:09:03;;;;;;;4.90;3.70;;;16.20;99.90;;;;;;2074912;28;20022;-74
2023/09/27 01:10:04;;;;;;;4.55;3.60;;;16.20;99.90;;;;;;2066636;28;20053;-74
2023/09/27 01:11:05;;;;;;;4.25;3.85;;;16.20;99.90;;;;;;2065756;28;20519;-74
2023/09/27 01:12:07;;;;;;;3.70;3.40;;;16.20;99.90;;;;;;2069759;28;20524;-74
2023/09/27 01:13:08;;;;;;;4.18;3.88;;;16.20;99.90;;;;;;2070460;28;20500;-74
2023/09/27 01:14:09;;;;;;;3.92;3.58;;;16.20;99.90;;;;;;2076642;28;20034;-74
2023/09/27 01:15:10;;;;;;;5.10;3.80;;;16.20;99.90;;;;;;2076088;28;20040;-74
2023/09/27 01:16:10;;;;;;;4.35;3.95;;;16.20;99.90;;;;;;2075605;28;20048;-74
2023/09/27 01:17:11;;;;;;;6.45;4.30;;;16.20;99.90;;;;;;2076172;28;20045;-74
2023/09/27 01:18:12;;;;;;;4.50;3.67;;;16.20;99.90;;;;;;2075756;28;20045;-74
2023/09/27 01:19:12;;;;;;;4.30;4.00;;;16.10;99.90;;;;;;2075368;28;20057;-74
2023/09/27 01:20:13;;;;;;;4.70;4.30;;;16.10;99.90;;;;;;2067737;28;20126;-74
2023/09/27 01:21:18;;;;;;;8.00;4.07;;;16.10;99.90;;;;;;2060502;28;21169;-74
2023/09/27 01:22:19;;;;;;;4.13;3.67;;;16.10;99.90;;;;;;2062520;28;20031;-74
2023/09/27 01:23:20;;;;;;;4.22;3.83;;;16.10;99.90;;;;;;2067414;28;20030;-74
2023/09/27 01:24:21;;;;;;;4.18;3.78;;;16.10;99.90;;;;;;2076103;28;20033;-74
2023/09/27 01:25:24;;;;;;;4.43;4.03;;;16.10;99.90;;;;;;2067110;28;20026;-74
2023/09/27 01:26:26;;;;;;;4.20;3.90;;;16.10;99.90;;;;;;2067871;28;20109;-74
2023/09/27 01:27:27;;;;;;;4.45;4.05;;;16.10;99.90;;;;;;2075821;28;20129;-74
2023/09/27 01:28:29;;;;;;;4.15;3.85;;;16.10;99.90;;;;;;2076432;28;20025;-74
2023/09/27 01:29:30;;;;;;;4.07;3.67;;;16.00;99.90;;;;;;2076980;28;20380;-74
2023/09/27 01:30:33;;;;;;;4.00;3.70;;;16.10;99.90;;;;;;2075972;28;20022;-74
2023/09/27 01:31:37;;;;;;;5.78;4.05;;;16.00;99.90;;;;;;2074700;28;20026;-74
2023/09/27 01:32:37;;;;;;;4.15;3.85;;;16.00;99.90;;;;;;2075827;28;20124;-74
2023/09/27 01:33:39;;;;;;;3.75;3.45;;;16.00;99.90;;;;;;2077427;28;20022;-74
2023/09/27 01:34:40;;;;;;;4.40;3.88;;;16.00;99.90;;;;;;2077957;28;20138;-74
2023/09/27 01:35:42;;;;;;;4.35;4.00;;;16.00;99.90;;;;;;2075946;28;20018;-74
2023/09/27 01:36:43;;;;;;;4.93;4.45;;;16.00;99.90;;;;;;2065785;28;20038;-74
2023/09/27 01:37:43;;;;;;;4.95;4.05;;;16.00;99.90;;;;;;2067073;28;20485;-74
2023/09/27 01:38:44;;;;;;;4.28;3.85;;;16.00;99.90;;;;;;2076698;28;20553;-74
2023/09/27 01:39:45;;;;;;;4.32;3.78;;;16.00;99.90;;;;;;2077388;28;20057;-74
2023/09/27 01:40:45;;;;;;;5.75;4.13;;;15.90;99.90;;;;;;2076150;28;20036;-74
2023/09/27 01:41:46;;;;;;;5.00;4.55;;;15.90;99.90;;;;;;2067133;28;20021;-74
2023/09/27 01:42:47;;;;;;;6.20;3.95;;;15.90;99.90;;;;;;2066984;28;20113;-74
2023/09/27 01:43:47;;;;;;;4.60;4.20;;;15.90;99.90;;;;;;2074908;28;20037;-74
2023/09/27 01:44:48;;;;;;;4.97;4.60;;;15.90;99.90;;;;;;2075314;28;20026;-74
2023/09/27 01:45:48;;;;;;;4.47;3.97;;;15.90;99.90;;;;;;2066642;28;20023;-74
2023/09/27 01:46:49;;;;;;;4.20;3.80;;;15.90;99.90;;;;;;2067794;28;20453;-74
2023/09/27 01:47:49;;;;;;;3.78;3.38;;;15.90;99.90;;;;;;2077604;28;20480;-74
2023/09/27 01:48:51;;;;;;;4.28;3.90;;;15.90;99.90;;;;;;2077932;28;20081;-74
2023/09/27 01:49:52;;;;;;;4.38;3.90;;;15.90;99.90;;;;;;2068459;28;20125;-74
2023/09/27 01:50:52;;;;;;;4.25;3.85;;;15.90;99.90;;;;;;2070798;28;20029;-74
2023/09/27 01:51:53;;;;;;;4.47;4.07;;;15.80;99.90;;;;;;2078765;28;20029;-74
2023/09/27 01:52:55;;;;;;;4.15;3.78;;;15.80;99.90;;;;;;2078772;28;20104;-74
2023/09/27 01:53:55;;;;;;;6.35;4.25;;;15.80;99.90;;;;;;2078309;28;20431;-74
2023/09/27 01:54:56;;;;;;;7.63;3.88;;;15.80;99.90;;;;;;2077346;28;20034;-74
2023/09/27 01:55:56;;;;;;;5.03;4.13;;;15.80;99.90;;;;;;2069138;28;20022;-74
2023/09/27 01:56:57;;;;;;;4.55;4.15;;;15.80;99.90;;;;;;2066416;28;20066;-74
2023/09/27 01:57:57;;;;;;;6.05;3.78;;;15.80;99.90;;;;;;2068030;28;20503;-74
2023/09/27 01:58:58;;;;;;;5.20;4.10;;;15.80;99.90;;;;;;2068260;28;20022;-74
2023/09/27 01:59:58;;;;;;;5.57;4.30;;;15.80;99.90;;;;;;2076897;28;20083;-74
2023/09/27 02:00:59;;;;;;;6.80;4.20;;;15.70;99.90;;;;;;2076690;28;20571;-74
2023/09/27 02:02:00;;;;;;;4.10;3.80;;;15.70;99.90;;;;;;2076534;28;20030;-74
2023/09/27 02:03:01;;;;;;;4.10;3.80;;;15.70;99.90;;;;;;2077601;28;20017;-74
2023/09/27 02:04:04;;;;;;;5.00;4.43;;;15.70;99.90;;;;;;2078936;28;20022;-74
2023/09/27 02:05:05;;;;;;;4.30;3.90;;;15.70;99.90;;;;;;2076736;28;20485;-74
2023/09/27 02:06:05;;;;;;;5.47;3.83;;;15.70;99.90;;;;;;2068393;28;20500;-74
2023/09/27 02:07:06;;;;;;;4.07;3.65;;;15.70;99.90;;;;;;2070336;28;20088;-74
2023/09/27 02:08:07;;;;;;;3.88;3.58;;;15.70;99.90;;;;;;2077677;28;20512;-74
2023/09/27 02:09:08;;;;;;;7.45;4.72;;;15.70;99.90;;;;;;2076553;28;20069;-74
2023/09/27 02:10:10;;;;;;;4.03;3.22;;;15.70;99.90;;;;;;2076094;28;20113;-74
2023/09/27 02:11:12;;;;;;;4.22;3.75;;;15.70;99.90;;;;;;2077779;28;20091;-74
2023/09/27 02:12:13;;;;;;;6.30;4.15;;;15.70;99.90;;;;;;2077204;28;20486;-74
2023/09/27 02:13:14;;;;;;;4.55;4.20;;;15.60;99.90;;;;;;2072262;28;20401;-74
2023/09/27 02:14:14;;;;;;;4.18;3.75;;;15.60;99.90;;;;;;2070996;28;20401;-74
2023/09/27 02:15:16;;;;;;;4.10;3.70;;;15.60;99.90;;;;;;2067740;28;20018;-74
2023/09/27 02:16:16;;;;;;;4.30;3.90;;;15.60;99.90;;;;;;2067666;28;20032;-74
2023/09/27 02:17:17;;;;;;;3.65;3.40;;;15.60;99.90;;;;;;2076616;28;20041;-74
2023/09/27 02:18:17;;;;;;;4.43;3.42;;;15.60;99.90;;;;;;2077911;28;20113;-74
2023/09/27 02:19:18;;;;;;;4.18;3.80;;;15.60;99.90;;;;;;2069296;28;20029;-74
2023/09/27 02:20:18;;;;;;;4.43;4.07;;;15.60;99.90;;;;;;2070046;28;20034;-74
2023/09/27 02:21:19;;;;;;;4.65;4.25;;;15.50;99.90;;;;;;2074957;28;20030;-74
2023/09/27 02:22:20;;;;;;;4.00;3.60;;;15.60;99.90;;;;;;2077531;28;20073;-74
2023/09/27 02:23:20;;;;;;;5.43;4.00;;;15.50;99.90;;;;;;2077715;28;20033;-74
2023/09/27 02:24:21;;;;;;;4.43;4.03;;;15.50;99.90;;;;;;2077520;28;20029;-74
2023/09/27 02:25:21;;;;;;;4.22;3.92;;;15.50;99.90;;;;;;2076970;28;20038;-74
2023/09/27 02:26:22;;;;;;;4.13;3.83;;;15.50;99.90;;;;;;2076981;28;20029;-74
2023/09/27 02:27:23;;;;;;;4.30;3.90;;;15.50;99.90;;;;;;2078155;28;20052;-74
2023/09/27 02:28:24;;;;;;;4.18;3.78;;;15.50;99.90;;;;;;2077361;28;20912;-74
2023/09/27 02:29:26;;;;;;;4.28;3.88;;;15.50;99.90;;;;;;2078633;28;20469;-74
2023/09/27 02:30:27;;;;;;;4.82;3.80;;;15.50;99.90;;;;;;2077056;28;20024;-74
2023/09/27 02:31:27;;;;;;;4.22;3.83;;;15.50;99.90;;;;;;2078183;28;20022;-74
2023/09/27 02:32:28;;;;;;;3.70;3.40;;;15.50;99.90;;;;;;2068728;28;20081;-74
2023/09/27 02:33:29;;;;;;;3.72;3.42;;;15.50;99.90;;;;;;2066235;28;20810;-74
2023/09/27 02:34:30;;;;;;;4.07;3.55;;;15.40;99.90;;;;;;2077588;28;20472;-74
2023/09/27 02:35:30;;;;;;;4.68;4.13;;;15.40;99.90;;;;;;2077244;28;20479;-74
2023/09/27 02:36:31;;;;;;;4.15;3.75;;;15.40;99.90;;;;;;2077747;28;20142;-74
2023/09/27 02:37:31;;;;;;;4.07;3.67;;;15.40;99.90;;;;;;2077111;28;20484;-74
2023/09/27 02:38:35;;;;;;;3.90;3.60;;;15.40;99.90;;;;;;2075406;28;20108;-74
2023/09/27 02:39:36;;;;;;;3.85;3.55;;;15.40;99.90;;;;;;2077338;28;20621;-74
2023/09/27 02:40:36;;;;;;;4.63;4.20;;;15.40;99.90;;;;;;2076638;28;20522;-74
2023/09/27 02:41:37;;;;;;;4.18;3.83;;;15.40;99.90;;;;;;2070766;28;20049;-74
2023/09/27 02:42:40;;;;;;;4.10;3.63;;;15.40;99.90;;;;;;2070145;28;20096;-74
2023/09/27 02:43:40;;;;;;;4.28;3.88;;;15.40;99.90;;;;;;2077382;28;20022;-74
2023/09/27 02:44:41;;;;;;;3.78;3.47;;;15.40;99.90;;;;;;2077053;28;20152;-74
2023/09/27 02:45:42;;;;;;;4.47;4.07;;;15.30;99.90;;;;;;2077378;28;20029;-74
2023/09/27 02:46:44;;;;;;;4.50;3.55;;;15.30;99.90;;;;;;2070712;28;20029;-74
2023/09/27 02:47:46;;;;;;;4.18;3.88;;;15.30;99.90;;;;;;2071046;28;20030;-74
2023/09/27 02:48:46;;;;;;;4.00;3.63;;;15.30;99.90;;;;;;2076636;28;20021;-74
2023/09/27 02:49:47;;;;;;;6.07;4.10;;;15.30;99.90;;;;;;2078459;28;20017;-74
2023/09/27 02:50:52;;;;;;;4.45;3.58;;;15.30;99.90;;;;;;2071407;28;20427;-74
2023/09/27 02:51:53;;;;;;;3.88;3.58;;;15.30;99.90;;;;;;2074051;28;20020;-74
2023/09/27 02:52:53;;;;;;;4.00;3.42;;;15.30;99.90;;;;;;2077972;28;20025;-74
2023/09/27 02:53:54;;;;;;;4.00;3.67;;;15.30;99.90;;;;;;2077159;28;20914;-74
2023/09/27 02:54:54;;;;;;;4.13;3.83;;;15.30;99.90;;;;;;2071153;28;20120;-74
2023/09/27 02:55:55;;;;;;;4.13;3.65;;;15.20;99.90;;;;;;2070724;28;20523;-74
2023/09/27 02:56:55;;;;;;;4.20;3.85;;;15.30;99.90;;;;;;2075925;28;20018;-74
2023/09/27 02:57:56;;;;;;;4.07;3.67;;;15.20;99.90;;;;;;2077865;28;20104;-74
2023/09/27 02:58:56;;;;;;;4.68;4.18;;;15.20;99.90;;;;;;2077631;28;20130;-74
2023/09/27 02:59:57;;;;;;;4.53;3.83;;;15.30;99.90;;;;;;2076465;28;20038;-74
2023/09/27 03:00:57;;;;;;;7.85;4.43;;;15.20;99.90;;;;;;2076252;28;20380;-74
2023/09/27 03:01:58;;;;;;;4.82;3.70;;;15.20;99.90;;;;;;2078267;28;20029;-74
2023/09/27 03:03:01;;;;;;;5.18;4.00;;;15.20;99.90;;;;;;2076714;28;20481;-74
2023/09/27 03:04:02;;;;;;;4.55;4.10;;;15.20;99.90;;;;;;2077265;28;20052;-74
2023/09/27 03:05:05;;;;;;;3.83;3.53;;;15.20;99.90;;;;;;2077840;28;20056;-74
2023/09/27 03:06:12;;;;;;;4.40;4.00;;;15.20;99.90;;;;;;2077094;28;20388;-74
2023/09/27 03:07:15;;;;;;;4.40;4.00;;;15.20;99.90;;;;;;2077208;28;20021;-74
2023/09/27 03:08:15;;;;;;;5.20;4.13;;;15.20;99.90;;;;;;2077541;28;20033;-74
2023/09/27 03:09:16;;;;;;;4.28;3.83;;;15.20;99.90;;;;;;2067515;28;20106;-74
2023/09/27 03:10:18;;;;;;;3.97;3.63;;;15.20;99.90;;;;;;2067101;28;20412;-74
2023/09/27 03:11:18;;;;;;;7.97;3.92;;;15.20;99.90;;;;;;2077806;28;20026;-74
2023/09/27 03:12:19;;;;;;;4.75;4.35;;;15.20;99.90;;;;;;2067098;28;20053;-73
2023/09/27 03:13:20;;;;;;;4.97;3.95;;;15.20;99.90;;;;;;2069143;28;20032;-74
2023/09/27 03:14:21;;;;;;;5.47;4.07;;;15.20;99.90;;;;;;2077421;28;20029;-74
2023/09/27 03:15:21;;;;;;;4.97;4.57;;;15.10;99.90;;;;;;2078078;28;20552;-74
2023/09/27 03:16:22;;;;;;;4.35;3.97;;;15.20;99.90;;;;;;2077848;28;20448;-74
2023/09/27 03:17:23;;;;;;;5.57;4.75;;;15.10;99.90;;;;;;2070417;28;20033;-74
2023/09/27 03:18:23;;;;;;;5.68;3.80;;;15.10;99.90;;;;;;2070221;28;20057;-74
2023/09/27 03:19:24;;;;;;;4.90;4.45;;;15.10;99.90;;;;;;2068706;28;20037;-74
2023/09/27 03:20:25;;;;;;;5.18;4.68;;;15.10;99.90;;;;;;2070572;28;20108;-74
2023/09/27 03:21:26;;;;;;;4.55;4.22;;;15.10;99.90;;;;;;2071553;28;20488;-74
2023/09/27 03:22:27;;;;;;;5.75;4.38;;;15.10;99.90;;;;;;2064946;28;20062;-74
2023/09/27 03:23:28;;;;;;;4.30;4.00;;;15.10;99.90;;;;;;2067938;28;20029;-74
2023/09/27 03:24:29;;;;;;;4.13;3.83;;;15.10;99.90;;;;;;2076513;28;20033;-74
2023/09/27 03:25:30;;;;;;;7.38;4.10;;;15.10;99.90;;;;;;2076219;28;20026;-74
2023/09/27 03:26:31;;;;;;;4.95;4.45;;;15.10;99.90;;;;;;2077420;28;20032;-74
2023/09/27 03:27:31;;;;;;;6.07;4.53;;;15.10;99.90;;;;;;2076008;28;20112;-74
2023/09/27 03:28:32;;;;;;;4.95;3.67;;;15.10;99.90;;;;;;2077108;28;20105;-74
2023/09/27 03:29:32;;;;;;;6.57;4.25;;;15.10;99.90;;;;;;2077216;28;20026;-74
2023/09/27 03:30:34;;;;;;;4.88;4.45;;;15.10;99.90;;;;;;2075191;28;20490;-74
2023/09/27 03:31:34;;;;;;;5.15;4.70;;;15.10;99.90;;;;;;2076916;28;20024;-74
2023/09/27 03:32:35;;;;;;;6.47;4.38;;;15.10;99.90;;;;;;2077772;28;20179;-74
2023/09/27 03:33:36;;;;;;;4.70;4.30;;;15.10;99.90;;;;;;2075435;28;20033;-74
2023/09/27 03:34:37;;;;;;;4.32;3.60;;;15.10;99.90;;;;;;2076724;28;20029;-74
2023/09/27 03:35:37;;;;;;;5.07;4.57;;;15.10;99.90;;;;;;2076782;28;20037;-74
2023/09/27 03:36:38;;;;;;;4.45;4.05;;;15.10;99.90;;;;;;2070545;28;20026;-74
2023/09/27 03:37:39;;;;;;;7.10;4.43;;;15.10;99.90;;;;;;2072389;28;20085;-74
2023/09/27 03:38:40;;;;;;;4.93;4.45;;;15.00;99.90;;;;;;2077939;28;20033;-74
2023/09/27 03:39:41;;;;;;;8.23;4.90;;;15.10;99.90;;;;;;2076699;28;20022;-74
2023/09/27 03:40:42;;;;;;;4.05;3.72;;;15.10;99.90;;;;;;2076390;28;20029;-74
2023/09/27 03:41:42;;;;;;;4.40;4.00;;;15.10;99.90;;;;;;2077262;28;20112;-74
2023/09/27 03:42:44;;;;;;;6.63;4.38;;;15.10;99.90;;;;;;2067823;28;20053;-74
2023/09/27 03:43:44;;;;;;;6.15;4.72;;;15.10;99.90;;;;;;2068157;28;20045;-74
2023/09/27 03:44:45;;;;;;;6.50;4.60;;;15.10;99.90;;;;;;2076728;28;20026;-74
2023/09/27 03:45:46;;;;;;;6.38;4.75;;;15.10;99.90;;;;;;2076294;28;20076;-74
2023/09/27 03:46:46;;;;;;;5.30;4.65;;;15.00;99.90;;;;;;2068762;28;20040;-74
2023/09/27 03:47:47;;;;;;;3.95;3.65;;;15.10;99.90;;;;;;2069103;28;20026;-74
2023/09/27 03:48:47;;;;;;;4.30;3.90;;;15.00;99.90;;;;;;2077882;28;20539;-74
2023/09/27 03:49:48;;;;;;;5.00;4.55;;;15.00;99.90;;;;;;2075629;28;20109;-74
2023/09/27 03:50:49;;;;;;;4.90;4.50;;;15.10;99.90;;;;;;2076326;28;20025;-74
2023/09/27 03:51:49;;;;;;;7.63;4.65;;;15.00;99.90;;;;;;2066130;28;20022;-74
2023/09/27 03:52:55;;;;;;;6.43;4.50;;;15.00;99.90;;;;;;2065186;28;20038;-74
2023/09/27 03:53:56;;;;;;;4.05;3.67;;;15.00;99.90;;;;;;2070989;28;20018;-74
2023/09/27 03:54:57;;;;;;;4.65;4.22;;;15.00;99.90;;;;;;2072899;28;20513;-74
2023/09/27 03:55:57;;;;;;;5.38;4.65;;;15.00;99.90;;;;;;2076738;28;20037;-74
2023/09/27 03:56:58;;;;;;;4.88;4.40;;;15.00;99.90;;;;;;2074317;28;20172;-74
2023/09/27 03:57:59;;;;;;;6.65;4.35;;;15.00;99.90;;;;;;2078104;28;20076;-74
2023/09/27 03:58:59;;;;;;;4.30;3.90;;;15.00;99.90;;;;;;2077570;28;20040;-74
2023/09/27 04:00:00;;;;;;;4.85;4.35;;;15.00;99.90;;;;;;2077532;28;20063;-74
2023/09/27 04:01:01;;;;;;;4.55;4.15;;;15.00;99.90;;;;;;2077023;28;20045;-74
2023/09/27 04:02:01;;;;;;;4.30;3.90;;;15.00;99.90;;;;;;2076344;28;20670;-74
2023/09/27 04:03:02;;;;;;;4.28;3.83;;;15.00;99.90;;;;;;2075889;28;20037;-74
2023/09/27 04:04:04;;;;;;;4.20;3.90;;;15.00;99.90;;;;;;2076793;28;20571;-74
2023/09/27 04:05:05;;;;;;;5.40;4.88;;;15.00;99.90;;;;;;2075838;28;20092;-74
2023/09/27 04:06:06;;;;;;;6.28;4.35;;;15.00;99.90;;;;;;2075292;28;20105;-74
2023/09/27 04:07:06;;;;;;;5.15;4.65;;;15.00;99.90;;;;;;2075952;28;20135;-74
2023/09/27 04:08:07;;;;;;;4.53;3.53;;;15.00;99.90;;;;;;2068954;28;20029;-74
2023/09/27 04:09:08;;;;;;;4.00;3.70;;;15.00;99.90;;;;;;2067432;28;20026;-73
2023/09/27 04:10:09;;;;;;;5.25;4.15;;;15.00;99.90;;;;;;2067712;28;20715;-74
2023/09/27 04:11:10;;;;;;;4.90;4.43;;;15.00;99.90;;;;;;2061149;28;20114;-73
2023/09/27 04:12:11;;;;;;;4.60;4.03;;;15.00;99.90;;;;;;2060662;28;20035;-74
2023/09/27 04:13:12;;;;;;;4.35;3.97;;;15.00;99.90;;;;;;2068013;28;20037;-73
2023/09/27 04:14:13;;;;;;;5.40;4.10;;;15.00;99.90;;;;;;2076408;28;20025;-73
2023/09/27 04:15:13;;;;;;;4.47;4.13;;;15.00;99.90;;;;;;2068313;28;20065;-73
2023/09/27 04:16:15;;;;;;;4.32;3.92;;;15.00;99.90;;;;;;2068857;28;20489;-73
2023/09/27 04:17:15;;;;;;;5.68;4.45;;;14.90;99.90;;;;;;2076560;28;20486;-73
2023/09/27 04:18:16;;;;;;;4.70;4.22;;;14.90;99.90;;;;;;2075862;28;20430;-73
2023/09/27 04:19:17;;;;;;;5.07;4.57;;;15.00;99.90;;;;;;2069093;28;20491;-73
2023/09/27 04:20:18;;;;;;;3.95;3.63;;;14.90;99.90;;;;;;2070125;28;20045;-73
2023/09/27 04:21:22;;;;;;;4.72;4.18;;;14.90;99.90;;;;;;2075302;28;20029;-74
2023/09/27 04:22:22;;;;;;;6.75;4.40;;;14.90;99.90;;;;;;2076695;28;20028;-73
2023/09/27 04:23:24;;;;;;;4.25;3.85;;;14.90;99.90;;;;;;2076876;28;20032;-73
2023/09/27 04:24:26;;;;;;;5.18;4.65;;;14.90;99.90;;;;;;2078916;28;20033;-73
2023/09/27 04:25:27;;;;;;;5.15;4.65;;;14.90;99.90;;;;;;2079291;28;20068;-73
2023/09/27 04:26:28;;;;;;;6.95;4.40;;;14.90;99.90;;;;;;2067311;28;20034;-73
2023/09/27 04:27:28;;;;;;;5.85;4.07;;;14.90;99.90;;;;;;2067645;28;20037;-73
2023/09/27 04:28:29;;;;;;;5.90;4.45;;;14.90;99.90;;;;;;2073965;28;20638;-73
2023/09/27 04:29:30;;;;;;;5.22;4.72;;;14.90;99.90;;;;;;2076716;28;20026;-73
2023/09/27 04:30:32;;;;;;;5.10;4.60;;;14.90;99.90;;;;;;2076630;28;20571;-73
2023/09/27 04:31:33;;;;;;;5.18;4.78;;;14.90;99.90;;;;;;2075632;28;20028;-73
2023/09/27 04:32:33;;;;;;;4.60;4.20;;;14.90;99.90;;;;;;2074913;28;20069;-73
2023/09/27 04:33:34;;;;;;;5.60;4.45;;;14.90;99.90;;;;;;2069354;28;20061;-73
2023/09/27 04:34:34;;;;;;;5.28;4.63;;;14.90;99.90;;;;;;2068677;28;20025;-73
2023/09/27 04:35:35;;;;;;;5.10;4.60;;;14.90;99.90;;;;;;2076196;28;20046;-73
2023/09/27 04:36:35;;;;;;;5.22;4.72;;;14.90;99.90;;;;;;2077594;28;20053;-73
2023/09/27 04:37:37;;;;;;;5.25;4.85;;;14.90;99.90;;;;;;2078067;28;20141;-73
2023/09/27 04:38:38;;;;;;;5.00;4.60;;;14.90;99.90;;;;;;2076968;28;20025;-73
2023/09/27 04:39:39;;;;;;;5.50;5.00;;;14.80;99.90;;;;;;2075610;28;20383;-73
2023/09/27 04:40:40;;;;;;;4.88;4.47;;;14.90;99.90;;;;;;2068014;28;20057;-73
2023/09/27 04:41:41;;;;;;;5.00;4.55;;;14.80;99.90;;;;;;2068756;28;20064;-73
2023/09/27 04:42:42;;;;;;;5.43;3.97;;;14.80;99.90;;;;;;2077342;28;20057;-73
2023/09/27 04:43:44;;;;;;;6.97;5.70;;;14.80;99.90;;;;;;2076694;28;20035;-73
2023/09/27 04:44:45;;;;;;;5.03;4.60;;;14.80;99.90;;;;;;2075589;28;20026;-73
2023/09/27 04:45:47;;;;;;;7.10;4.78;;;14.80;99.90;;;;;;2076744;28;20030;-73
2023/09/27 04:46:48;;;;;;;4.50;4.20;;;14.80;99.90;;;;;;2067757;28;20089;-73
2023/09/27 04:47:49;;;;;;;5.28;4.80;;;14.80;99.90;;;;;;2066833;28;20540;-73
2023/09/27 04:48:50;;;;;;;5.10;4.60;;;14.80;99.90;;;;;;2076515;28;20033;-73
2023/09/27 04:49:51;;;;;;;4.30;3.88;;;14.80;99.90;;;;;;2076787;28;20017;-73
2023/09/27 04:50:51;;;;;;;4.82;4.43;;;14.80;99.90;;;;;;2076112;28;20041;-73
2023/09/27 04:51:52;;;;;;;4.97;4.53;;;14.80;99.90;;;;;;2076812;28;20577;-73
2023/09/27 04:52:53;;;;;;;4.88;4.38;;;14.80;99.90;;;;;;2075541;28;20101;-73
2023/09/27 04:53:53;;;;;;;5.72;4.20;;;14.80;99.90;;;;;;2076603;28;20140;-73
2023/09/27 04:54:58;;;;;;;4.43;4.13;;;14.80;99.90;;;;;;2076015;28;20047;-73
2023/09/27 04:55:58;;;;;;;4.78;4.38;;;14.80;99.90;;;;;;2076655;28;20022;-73
2023/09/27 04:56:59;;;;;;;5.43;4.40;;;14.80;99.90;;;;;;2078178;28;20029;-73
2023/09/27 04:58:00;;;;;;;5.97;4.32;;;14.80;99.90;;;;;;2078198;28;20072;-73
2023/09/27 04:59:05;;;;;;;4.10;3.70;;;14.80;99.90;;;;;;2069968;28;20401;-73
2023/09/27 05:00:13;;;;;;;4.55;4.15;;;14.80;99.90;;;;;;2071236;28;20041;-73
2023/09/27 05:01:14;;;;;;;6.80;4.70;;;14.80;99.90;;;;;;2075575;28;20556;-73
2023/09/27 05:02:16;;;;;;;5.20;4.57;;;14.80;99.90;;;;;;2076346;28;20388;-73
2023/09/27 05:03:16;;;;;;;6.90;4.43;;;14.80;99.90;;;;;;2075316;28;20030;-73
2023/09/27 05:04:17;;;;;;;4.43;4.03;;;14.80;99.90;;;;;;2075632;28;20149;-73
2023/09/27 05:05:18;;;;;;;8.02;5.22;;;14.80;99.90;;;;;;2076963;28;20490;-73
2023/09/27 05:06:20;;;;;;;5.13;4.47;;;14.80;99.90;;;;;;2068076;28;20046;-73
2023/09/27 05:07:20;;;;;;;9.98;5.00;;;14.80;99.90;;;;;;2068848;28;20034;-73
2023/09/27 05:08:21;;;;;;;6.07;4.53;;;14.80;99.90;;;;;;2068529;28;20476;-73
2023/09/27 05:09:21;;;;;;;5.18;4.68;;;14.70;99.90;;;;;;2069735;28;20109;-73
2023/09/27 05:10:22;;;;;;;5.13;4.55;;;14.80;99.90;;;;;;2076055;28;20022;-73
2023/09/27 05:11:23;;;;;;;4.75;4.35;;;14.70;99.90;;;;;;2076753;28;20379;-73
2023/09/27 05:12:23;;;;;;;4.88;4.38;;;14.70;99.90;;;;;;2077233;28;20572;-73
2023/09/27 05:13:24;;;;;;;5.25;4.70;;;14.70;99.90;;;;;;2075268;28;20022;-73
2023/09/27 05:14:24;;;;;;;5.18;4.32;;;14.70;99.90;;;;;;2076043;28;20037;-73
2023/09/27 05:15:26;;;;;;;4.53;4.13;;;14.70;99.90;;;;;;2075435;28;20596;-73
2023/09/27 05:16:27;;;;;;;4.70;4.32;;;14.70;99.90;;;;;;2075235;28;20104;-73
2023/09/27 05:17:27;;;;;;;10.27;5.25;;;14.70;99.90;;;;;;2076184;28;20091;-73
2023/09/27 05:18:28;;;;;;;5.93;4.53;;;14.70;99.90;;;;;;2075087;28;20018;-73